| time (UTC) | temp F | wind direction | speed MPH | gust MPH | rain 1hr in | rain 24hr in | rain mn in | humidity % | barometer mb |
| 20260503004559 | 66 | 103 | 1.0 | 7.0 | 0.00 | 0.00 | 0.00 | 35 | 1015.8 |
| 20260503003102 | 67 | 103 | 2.0 | 11.0 | 0.00 | 0.00 | 0.00 | 35 | 1015.9 |
| 20260503001619 | 67 | 144 | 10.0 | 14.0 | 0.00 | 0.00 | 0.00 | 35 | 1015.9 |
| 20260503000121 | 66 | 112 | 2.0 | 6.0 | 0.00 | 0.00 | 0.00 | 36 | 1015.9 |
| 20260502234605 | 65 | 119 | 2.0 | 9.0 | 0.00 | 0.00 | 0.00 | 37 | 1016.1 |
| 20260502233110 | 66 | 85 | 2.0 | 8.0 | 0.00 | 0.00 | 0.00 | 35 | 1016.3 |
| 20260502231619 | 67 | 63 | 6.0 | 12.0 | 0.00 | 0.00 | 0.00 | 35 | 1016.6 |
| 20260502224603 | 67 | 128 | 5.0 | 11.0 | 0.00 | 0.00 | 0.00 | 35 | 1016.7 |
| 20260502223100 | 67 | 0 | 0.0 | 5.0 | 0.00 | 0.00 | 0.00 | 35 | 1017.0 |
| 20260502221603 | 67 | 145 | 6.0 | 11.0 | 0.00 | 0.00 | 0.00 | 34 | 1017.2 |
| 20260502220100 | 67 | 322 | 1.0 | 4.0 | 0.00 | 0.00 | 0.00 | 36 | 1017.5 |
| 20260502214558 | 66 | 101 | 2.0 | 7.0 | 0.00 | 0.00 | 0.00 | 36 | 1017.7 |
| 20260502213059 | 66 | 319 | 2.0 | 12.0 | 0.00 | 0.00 | 0.00 | 36 | 1017.8 |
| 20260502211601 | 67 | 5 | 3.0 | 5.0 | 0.00 | 0.00 | 0.00 | 35 | 1017.9 |
| 20260502210100 | 68 | 157 | 3.0 | 11.0 | 0.00 | 0.00 | 0.00 | 35 | 1018.1 |
| 20260502204557 | 67 | 111 | 2.0 | 10.0 | 0.00 | 0.00 | 0.00 | 36 | 1018.2 |
| 20260502203059 | 66 | 111 | 4.0 | 9.0 | 0.00 | 0.00 | 0.00 | 37 | 1018.4 |
| 20260502201604 | 66 | 153 | 3.0 | 10.0 | 0.00 | 0.00 | 0.00 | 36 | 1018.5 |
| 20260502200058 | 65 | 106 | 2.0 | 8.0 | 0.00 | 0.00 | 0.00 | 38 | 1018.6 |
| 20260502194616 | 64 | 349 | 4.0 | 8.0 | 0.00 | 0.00 | 0.00 | 39 | 1018.6 |
| 20260502193108 | 65 | 102 | 2.0 | 9.0 | 0.00 | 0.00 | 0.00 | 37 | 1018.8 |
| 20260502191612 | 66 | 103 | 4.0 | 12.0 | 0.00 | 0.00 | 0.00 | 37 | 1019.0 |
| 20260502190058 | 64 | 82 | 3.0 | 11.0 | 0.00 | 0.00 | 0.00 | 39 | 1019.3 |
| 20260502184610 | 64 | 355 | 2.0 | 9.0 | 0.00 | 0.00 | 0.00 | 38 | 1019.4 |
| 20260502183058 | 63 | 51 | 2.0 | 11.0 | 0.00 | 0.00 | 0.00 | 40 | 1019.6 |
| 20260502181559 | 63 | 24 | 4.0 | 9.0 | 0.00 | 0.00 | 0.00 | 40 | 1019.7 |
| 20260502163059 | 61 | 342 | 4.0 | 10.0 | 0.00 | 0.00 | 0.00 | 43 | 1020.3 |
| 20260502161624 | 60 | 37 | 5.0 | 10.0 | 0.00 | 0.00 | 0.00 | 46 | 1020.4 |
| 20260502160136 | 59 | 43 | 4.0 | 10.0 | 0.00 | 0.00 | 0.00 | 45 | 1020.4 |
| 20260502151610 | 58 | 63 | 4.0 | 11.0 | 0.00 | 0.00 | 0.00 | 46 | 1020.3 |
| 20260502150107 | 57 | 69 | 6.0 | 12.0 | 0.00 | 0.00 | 0.00 | 46 | 1020.1 |
| 20260502130121 | 47 | 9 | 3.0 | 6.0 | 0.00 | 0.00 | 0.00 | 61 | 1019.3 |
| 20260502123126 | 43 | 355 | 3.0 | 6.0 | 0.00 | 0.00 | 0.00 | 66 | 1019.0 |
| 20260502123048 | 43 | 355 | 2.0 | 6.0 | 0.00 | 0.00 | 0.00 | 67 | 1017.7 |
| 20260502121609 | 42 | 355 | 3.0 | 6.0 | 0.00 | 0.00 | 0.00 | 66 | 1018.8 |
| 20260502121548 | 42 | 350 | 3.0 | 6.0 | 0.00 | 0.00 | 0.00 | 67 | 1017.5 |
| 20260502120129 | 44 | 343 | 3.0 | 8.0 | 0.00 | 0.00 | 0.00 | 63 | 1018.4 |
| 20260502120104 | 44 | 343 | 2.0 | 8.0 | 0.00 | 0.00 | 0.00 | 64 | 1017.3 |
| 20260502114626 | 45 | 346 | 4.0 | 8.0 | 0.00 | 0.00 | 0.00 | 63 | 1017.0 |
| 20260502114558 | 45 | 347 | 3.0 | 8.0 | 0.00 | 0.00 | 0.00 | 62 | 1018.1 |
| 20260502113058 | 46 | 330 | 3.0 | 8.0 | 0.00 | 0.00 | 0.00 | 61 | 1018.0 |
| 20260502113053 | 46 | 331 | 3.0 | 8.0 | 0.00 | 0.00 | 0.00 | 61 | 1016.9 |
| 20260502111558 | 46 | 355 | 5.0 | 11.0 | 0.00 | 0.00 | 0.00 | 61 | 1017.7 |
| 20260502111553 | 46 | 346 | 4.0 | 11.0 | 0.00 | 0.00 | 0.00 | 61 | 1016.7 |
| 20260502110058 | 47 | 332 | 5.0 | 10.0 | 0.00 | 0.00 | 0.00 | 60 | 1017.7 |
| 20260502110056 | 47 | 330 | 5.0 | 10.0 | 0.00 | 0.00 | 0.00 | 61 | 1016.8 |
| 20260502104559 | 48 | 341 | 5.0 | 10.0 | 0.00 | 0.00 | 0.00 | 58 | 1017.4 |
| 20260502104556 | 48 | 344 | 6.0 | 10.0 | 0.00 | 0.00 | 0.00 | 59 | 1016.5 |
| 20260502103059 | 49 | 297 | 7.0 | 13.0 | 0.00 | 0.00 | 0.00 | 56 | 1016.7 |
| 20260502101615 | 49 | 311 | 6.0 | 12.0 | 0.00 | 0.00 | 0.00 | 55 | 1015.7 |
| 20260502101604 | 49 | 298 | 7.0 | 12.0 | 0.00 | 0.00 | 0.00 | 55 | 1016.4 |
| 20260502100112 | 47 | 301 | 4.0 | 8.0 | 0.00 | 0.00 | 0.00 | 60 | 1015.8 |
| 20260502080104 | 40 | 212 | 1.0 | 3.0 | 0.00 | 0.00 | 0.00 | 56 | 1015.9 |
| 20260502071517 | 45 | 212 | 2.0 | 3.0 | 0.00 | 0.00 | 0.00 | 50 | 1015.2 |
| 20260502070034 | 44 | 212 | 3.0 | 6.0 | 0.00 | 0.00 | 0.00 | 50 | 1015.2 |
| 20260502064601 | 46 | 255 | 2.0 | 6.0 | 0.00 | 0.00 | 0.00 | 46 | 1016.0 |
| 20260502064547 | 47 | 255 | 2.0 | 4.0 | 0.00 | 0.00 | 0.00 | 46 | 1015.1 |
| 20260502063102 | 47 | 252 | 2.0 | 5.0 | 0.00 | 0.00 | 0.00 | 45 | 1015.8 |
| 20260502063053 | 47 | 252 | 2.0 | 4.0 | 0.00 | 0.00 | 0.00 | 46 | 1015.0 |
| 20260502061602 | 47 | 248 | 3.0 | 5.0 | 0.00 | 0.00 | 0.00 | 44 | 1015.7 |
| 20260502061545 | 47 | 247 | 3.0 | 5.0 | 0.00 | 0.00 | 0.00 | 44 | 1015.0 |
| 20260502060119 | 42 | 235 | 2.0 | 5.0 | 0.00 | 0.00 | 0.00 | 49 | 1015.7 |
| 20260502060047 | 42 | 235 | 2.0 | 5.0 | 0.00 | 0.00 | 0.00 | 49 | 1015.0 |
| 20260502054605 | 42 | 237 | 1.0 | 4.0 | 0.00 | 0.00 | 0.00 | 48 | 1015.6 |
| 20260502054545 | 42 | 237 | 1.0 | 4.0 | 0.00 | 0.00 | 0.00 | 48 | 1014.9 |
| 20260502053101 | 43 | 242 | 2.0 | 4.0 | 0.00 | 0.00 | 0.00 | 48 | 1015.5 |
| 20260502053050 | 43 | 242 | 3.0 | 4.0 | 0.00 | 0.00 | 0.00 | 48 | 1014.9 |
| 20260502051606 | 42 | 240 | 3.0 | 4.0 | 0.00 | 0.00 | 0.00 | 49 | 1015.4 |
| 20260502051544 | 41 | 240 | 3.0 | 4.0 | 0.00 | 0.00 | 0.00 | 49 | 1014.6 |
| 20260502050108 | 41 | 249 | 3.0 | 7.0 | 0.00 | 0.00 | 0.00 | 45 | 1015.5 |
| 20260502050047 | 41 | 249 | 3.0 | 5.0 | 0.00 | 0.00 | 0.00 | 45 | 1014.6 |
| 20260502044606 | 45 | 275 | 4.0 | 6.0 | 0.00 | 0.00 | 0.00 | 39 | 1015.7 |
| 20260502044544 | 45 | 275 | 4.0 | 6.0 | 0.00 | 0.00 | 0.00 | 40 | 1014.7 |
| 20260502043122 | 45 | 261 | 2.0 | 6.0 | 0.00 | 0.00 | 0.00 | 43 | 1015.7 |
| 20260502043117 | 45 | 261 | 3.0 | 4.0 | 0.00 | 0.00 | 0.00 | 44 | 1014.9 |
| 20260502041610 | 47 | 283 | 2.0 | 4.0 | 0.00 | 0.00 | 0.00 | 39 | 1015.7 |
| 20260502041559 | 47 | 298 | 2.0 | 4.0 | 0.00 | 0.00 | 0.00 | 39 | 1014.8 |
| 20260502040108 | 49 | 319 | 3.0 | 4.0 | 0.00 | 0.00 | 0.00 | 38 | 1015.6 |
| 20260502040049 | 49 | 319 | 2.0 | 4.0 | 0.00 | 0.00 | 0.00 | 38 | 1014.7 |
| 20260502034607 | 51 | 322 | 0.0 | 3.0 | 0.00 | 0.00 | 0.00 | 41 | 1015.6 |
| 20260502034550 | 51 | 322 | 1.0 | 3.0 | 0.00 | 0.00 | 0.00 | 42 | 1014.6 |
| 20260502033107 | 53 | 323 | 0.0 | 3.0 | 0.00 | 0.00 | 0.00 | 40 | 1015.5 |
| 20260502033051 | 53 | 323 | 1.0 | 3.0 | 0.00 | 0.00 | 0.00 | 40 | 1014.5 |
| 20260502031602 | 56 | 323 | 3.0 | 5.0 | 0.00 | 0.00 | 0.00 | 35 | 1015.3 |
| 20260502031549 | 56 | 323 | 2.0 | 5.0 | 0.00 | 0.00 | 0.00 | 35 | 1014.3 |
| 20260502030058 | 56 | 321 | 3.0 | 4.0 | 0.00 | 0.00 | 0.00 | 33 | 1015.2 |
| 20260502030052 | 56 | 321 | 3.0 | 5.0 | 0.00 | 0.00 | 0.00 | 34 | 1014.1 |
| 20260502024612 | 58 | 308 | 1.0 | 4.0 | 0.00 | 0.00 | 0.00 | 31 | 1015.0 |
| 20260502024549 | 58 | 308 | 1.0 | 4.0 | 0.00 | 0.00 | 0.00 | 32 | 1014.0 |
| 20260502023100 | 62 | 305 | 1.0 | 3.0 | 0.00 | 0.00 | 0.00 | 25 | 1014.7 |
| 20260502023055 | 62 | 305 | 1.0 | 3.0 | 0.00 | 0.00 | 0.00 | 25 | 1013.6 |
| 20260502021606 | 65 | 305 | 1.0 | 4.0 | 0.00 | 0.00 | 0.00 | 22 | 1014.6 |
| 20260502021553 | 66 | 305 | 0.0 | 3.0 | 0.00 | 0.00 | 0.00 | 22 | 1013.5 |
| 20260502020059 | 69 | 0 | 1.0 | 3.0 | 0.00 | 0.00 | 0.00 | 26 | 1014.5 |
| 20260502020052 | 69 | 305 | 1.0 | 3.0 | 0.00 | 0.00 | 0.00 | 26 | 1013.6 |
| 20260502014559 | 71 | 303 | 2.0 | 4.0 | 0.00 | 0.00 | 0.00 | 21 | 1014.5 |
| 20260502014553 | 71 | 303 | 2.0 | 4.0 | 0.00 | 0.00 | 0.00 | 21 | 1013.5 |
| 20260502013100 | 72 | 265 | 3.0 | 7.0 | 0.00 | 0.00 | 0.00 | 21 | 1014.5 |
| 20260502013058 | 72 | 265 | 3.0 | 7.0 | 0.00 | 0.00 | 0.00 | 21 | 1013.6 |
| 20260502011559 | 74 | 300 | 4.0 | 11.0 | 0.00 | 0.00 | 0.00 | 19 | 1014.5 |
| 20260502011544 | 74 | 300 | 3.0 | 11.0 | 0.00 | 0.00 | 0.00 | 20 | 1013.6 |
| 20260502010106 | 74 | 267 | 4.0 | 9.0 | 0.00 | 0.00 | 0.00 | 19 | 1014.5 |
| 20260502010045 | 75 | 279 | 5.0 | 9.0 | 0.00 | 0.00 | 0.00 | 19 | 1013.7 |